Buoy 46930

sailwx.info

Track history (hours):
 
Tides and Currents Weather Stations Pressure Air Temp Water Temp Dewpoint Dewpoint Depression Visibility Wind Speed Wind Dir Waves Ship Positions

Drifting buoy 46930

Last reported at 2015-Mar-27 03:00 UTC. Time now 2015-Mar-27 05:23 UTC.
Position N 16°23' W 119°33'.

Date/timePositionNaut miles runAvg speedWind from/ knotsBaromVisibWave heightAir tempDewpointWater temp
2015-Mar-27 03:00N 16°23' W 119°33'6 0.5
2015-Mar-26 14:00N 16°29' W 119°35'6 0.5
2015-Mar-26 02:00N 16°35' W 119°36'4 0.5
2015-Mar-25 17:00N 16°38' W 119°38'0 0.1
2015-Mar-25 15:00N 16°38' W 119°38'0 0.4
2015-Mar-25 14:00N 16°38' W 119°38'0 0.2
2015-Mar-25 12:00N 16°38' W 119°38'0 0.3
2015-Mar-25 11:00N 16°38' W 119°38'3 0.3
2015-Mar-25 03:00N 16°40' W 119°40'0 0.1
2015-Mar-25 00:00N 16°40' W 119°40'0 0.1
2015-Mar-24 22:00N 16°40' W 119°40'0 0.1
2015-Mar-24 21:00N 16°40' W 119°40'2 0.2
2015-Mar-24 12:00N 16°41' W 119°41'0 0.0
2015-Mar-24 08:00N 16°42' W 119°41'0 0.1
2015-Mar-24 04:00N 16°42' W 119°41'0 0.3
2015-Mar-24 03:00N 16°42' W 119°41'2 0.1
2015-Mar-23 14:00N 16°43' W 119°41'0 0.1
2015-Mar-23 11:00N 16°43' W 119°42'2 0.3
2015-Mar-23 05:00N 16°45' W 119°42'0 0.2
2015-Mar-23 03:00N 16°45' W 119°43'2 0.3
2015-Mar-22 22:00N 16°46' W 119°44'3 0.2
2015-Mar-22 11:00N 16°46' W 119°47'1 0.6
2015-Mar-22 10:00N 16°46' W 119°46'1 0.2
2015-Mar-22 06:00N 16°45' W 119°46'1 0.4
2015-Mar-22 04:00N 16°44' W 119°45'3 0.2
2015-Mar-21 14:00N 16°44' W 119°42'0 0.2
2015-Mar-21 13:00N 16°44' W 119°42'2 0.2
2015-Mar-20 23:00N 16°46' W 119°42'1 0.1
2015-Mar-20 18:00N 16°47' W 119°41'0 0.2
2015-Mar-20 16:00N 16°47' W 119°42'1 0.5
2015-Mar-20 14:00N 16°48' W 119°42'4 0.3
2015-Mar-19 22:00N 16°50' W 119°46'1 0.6
2015-Mar-19 20:00N 16°50' W 119°44'4 0.3
2015-Mar-19 06:00N 16°46' W 119°42'0 0.2
2015-Mar-19 04:00N 16°46' W 119°42'1 0.5
2015-Mar-19 03:00N 16°46' W 119°41'1 0.9
2015-Mar-19 02:00N 16°45' W 119°42'1 0.4
2015-Mar-19 00:00N 16°45' W 119°41'0 0.4
2015-Mar-18 23:00N 16°45' W 119°41'0 0.1
2015-Mar-18 22:00N 16°45' W 119°41'0 0.0
2015-Mar-18 21:00N 16°45' W 119°41'0 0.1
2015-Mar-18 19:00N 16°45' W 119°40'0 0.1
2015-Mar-18 17:00N 16°45' W 119°40'0 0.1
2015-Mar-18 14:00N 16°45' W 119°40'0 0.3
2015-Mar-18 13:00N 16°45' W 119°40'0 0.1
2015-Mar-18 10:00N 16°45' W 119°40'0 0.0
2015-Mar-18 06:00N 16°45' W 119°40'1 0.6
2015-Mar-18 05:00N 16°46' W 119°40'1 1.1
2015-Mar-18 04:00N 16°45' W 119°39'1 0.8
2015-Mar-18 03:00N 16°46' W 119°39'0 0.0
2015-Mar-18 02:00N 16°46' W 119°39'0 0.2
2015-Mar-17 23:00N 16°46' W 119°39'0 0.3
2015-Mar-17 22:00N 16°46' W 119°39'1 0.2
2015-Mar-17 18:00N 16°45' W 119°38'0 0.0
2015-Mar-17 17:00N 16°45' W 119°38'2 1.6
2015-Mar-17 16:00N 16°45' W 119°36'0 0.0
2015-Mar-17 15:00N 16°45' W 119°36'1 0.5
2015-Mar-17 14:00N 16°45' W 119°37'0 0.1
2015-Mar-17 13:00N 16°45' W 119°37'0 0.4
2015-Mar-17 12:00N 16°44' W 119°37'0 0.0
2015-Mar-17 11:00N 16°44' W 119°37'1 1.0
2015-Mar-17 10:00N 16°44' W 119°36'1 0.5
2015-Mar-17 07:00N 16°43' W 119°37'0 0.3
2015-Mar-17 06:00N 16°43' W 119°37'1 0.7
2015-Mar-17 04:00N 16°41' W 119°37'  
Track history (hours):
 
Tides and Currents Weather Stations Pressure Air Temp Water Temp Dewpoint Dewpoint Depression Visibility Wind Speed Wind Dir Waves Ship Positions

Drifting buoy 46930

Last reported at 2015-Mar-27 03:00 UTC. Time now 2015-Mar-27 05:23 UTC.
Position N 16°23' W 119°33'.

Date/timePositionNaut miles runAvg speedWind from/ knotsBaromVisibWave heightAir tempDewpointWater temp
2015-Mar-27 03:00N 16°23' W 119°33'6 0.5
2015-Mar-26 14:00N 16°29' W 119°35'6 0.5
2015-Mar-26 02:00N 16°35' W 119°36'4 0.5
2015-Mar-25 17:00N 16°38' W 119°38'0 0.1
2015-Mar-25 15:00N 16°38' W 119°38'0 0.4
2015-Mar-25 14:00N 16°38' W 119°38'0 0.2
2015-Mar-25 12:00N 16°38' W 119°38'0 0.3
2015-Mar-25 11:00N 16°38' W 119°38'3 0.3
2015-Mar-25 03:00N 16°40' W 119°40'0 0.1
2015-Mar-25 00:00N 16°40' W 119°40'0 0.1
2015-Mar-24 22:00N 16°40' W 119°40'0 0.1
2015-Mar-24 21:00N 16°40' W 119°40'2 0.2
2015-Mar-24 12:00N 16°41' W 119°41'0 0.0
2015-Mar-24 08:00N 16°42' W 119°41'0 0.1
2015-Mar-24 04:00N 16°42' W 119°41'0 0.3
2015-Mar-24 03:00N 16°42' W 119°41'2 0.1
2015-Mar-23 14:00N 16°43' W 119°41'0 0.1
2015-Mar-23 11:00N 16°43' W 119°42'2 0.3
2015-Mar-23 05:00N 16°45' W 119°42'0 0.2
2015-Mar-23 03:00N 16°45' W 119°43'2 0.3
2015-Mar-22 22:00N 16°46' W 119°44'3 0.2
2015-Mar-22 11:00N 16°46' W 119°47'1 0.6
2015-Mar-22 10:00N 16°46' W 119°46'1 0.2
2015-Mar-22 06:00N 16°45' W 119°46'1 0.4
2015-Mar-22 04:00N 16°44' W 119°45'3 0.2
2015-Mar-21 14:00N 16°44' W 119°42'0 0.2
2015-Mar-21 13:00N 16°44' W 119°42'2 0.2
2015-Mar-20 23:00N 16°46' W 119°42'1 0.1
2015-Mar-20 18:00N 16°47' W 119°41'0 0.2
2015-Mar-20 16:00N 16°47' W 119°42'1 0.5
2015-Mar-20 14:00N 16°48' W 119°42'4 0.3
2015-Mar-19 22:00N 16°50' W 119°46'1 0.6
2015-Mar-19 20:00N 16°50' W 119°44'4 0.3
2015-Mar-19 06:00N 16°46' W 119°42'0 0.2
2015-Mar-19 04:00N 16°46' W 119°42'1 0.5
2015-Mar-19 03:00N 16°46' W 119°41'1 0.9
2015-Mar-19 02:00N 16°45' W 119°42'1 0.4
2015-Mar-19 00:00N 16°45' W 119°41'0 0.4
2015-Mar-18 23:00N 16°45' W 119°41'0 0.1
2015-Mar-18 22:00N 16°45' W 119°41'0 0.0
2015-Mar-18 21:00N 16°45' W 119°41'0 0.1
2015-Mar-18 19:00N 16°45' W 119°40'0 0.1
2015-Mar-18 17:00N 16°45' W 119°40'0 0.1
2015-Mar-18 14:00N 16°45' W 119°40'0 0.3
2015-Mar-18 13:00N 16°45' W 119°40'0 0.1
2015-Mar-18 10:00N 16°45' W 119°40'0 0.0
2015-Mar-18 06:00N 16°45' W 119°40'1 0.6
2015-Mar-18 05:00N 16°46' W 119°40'1 1.1
2015-Mar-18 04:00N 16°45' W 119°39'1 0.8
2015-Mar-18 03:00N 16°46' W 119°39'0 0.0
2015-Mar-18 02:00N 16°46' W 119°39'0 0.2
2015-Mar-17 23:00N 16°46' W 119°39'0 0.3
2015-Mar-17 22:00N 16°46' W 119°39'1 0.2
2015-Mar-17 18:00N 16°45' W 119°38'0 0.0
2015-Mar-17 17:00N 16°45' W 119°38'2 1.6
2015-Mar-17 16:00N 16°45' W 119°36'0 0.0
2015-Mar-17 15:00N 16°45' W 119°36'1 0.5
2015-Mar-17 14:00N 16°45' W 119°37'0 0.1
2015-Mar-17 13:00N 16°45' W 119°37'0 0.4
2015-Mar-17 12:00N 16°44' W 119°37'0 0.0
2015-Mar-17 11:00N 16°44' W 119°37'1 1.0
2015-Mar-17 10:00N 16°44' W 119°36'1 0.5
2015-Mar-17 07:00N 16°43' W 119°37'0 0.3
2015-Mar-17 06:00N 16°43' W 119°37'1 0.7
2015-Mar-17 04:00N 16°41' W 119°37'  

Dump ship's entire track history